sensor_id;sensor_type;location;lat;lon;timestamp;P1;durP1;ratioP1;P2;durP2;ratioP2
60502;SDS011;51448;51.660;5.824;2022-07-29T00:01:41;5.10;;;1.33;;
60502;SDS011;51448;51.660;5.824;2022-07-29T00:04:14;8.55;;;1.60;;
60502;SDS011;51448;51.660;5.824;2022-07-29T00:06:42;4.82;;;1.30;;
60502;SDS011;51448;51.660;5.824;2022-07-29T00:09:09;6.88;;;2.00;;
60502;SDS011;51448;51.660;5.824;2022-07-29T00:11:37;5.32;;;1.55;;
60502;SDS011;51448;51.660;5.824;2022-07-29T00:14:05;3.95;;;1.20;;
60502;SDS011;51448;51.660;5.824;2022-07-29T00:16:32;6.65;;;1.30;;
60502;SDS011;51448;51.660;5.824;2022-07-29T00:19:00;6.13;;;1.30;;
60502;SDS011;51448;51.660;5.824;2022-07-29T00:21:28;5.57;;;1.38;;
60502;SDS011;51448;51.660;5.824;2022-07-29T00:23:56;6.10;;;1.60;;
60502;SDS011;51448;51.660;5.824;2022-07-29T00:26:23;5.68;;;1.50;;
60502;SDS011;51448;51.660;5.824;2022-07-29T00:28:52;4.53;;;1.55;;
60502;SDS011;51448;51.660;5.824;2022-07-29T00:31:39;6.57;;;1.40;;
60502;SDS011;51448;51.660;5.824;2022-07-29T00:34:07;7.40;;;1.60;;
60502;SDS011;51448;51.660;5.824;2022-07-29T00:36:54;4.93;;;1.45;;
60502;SDS011;51448;51.660;5.824;2022-07-29T00:39:22;6.72;;;1.90;;
60502;SDS011;51448;51.660;5.824;2022-07-29T00:41:49;4.43;;;1.40;;
60502;SDS011;51448;51.660;5.824;2022-07-29T00:44:17;5.32;;;1.42;;
60502;SDS011;51448;51.660;5.824;2022-07-29T00:46:45;4.68;;;1.30;;
60502;SDS011;51448;51.660;5.824;2022-07-29T00:49:12;3.72;;;1.30;;
60502;SDS011;51448;51.660;5.824;2022-07-29T00:51:40;5.72;;;1.38;;
60502;SDS011;51448;51.660;5.824;2022-07-29T00:54:08;5.07;;;1.73;;
60502;SDS011;51448;51.660;5.824;2022-07-29T00:56:35;7.18;;;1.48;;
60502;SDS011;51448;51.660;5.824;2022-07-29T00:59:03;6.47;;;1.38;;
60502;SDS011;51448;51.660;5.824;2022-07-29T01:01:30;4.75;;;1.42;;
60502;SDS011;51448;51.660;5.824;2022-07-29T01:03:58;6.72;;;1.40;;
60502;SDS011;51448;51.660;5.824;2022-07-29T01:06:26;5.75;;;1.60;;
60502;SDS011;51448;51.660;5.824;2022-07-29T01:08:54;6.18;;;1.60;;
60502;SDS011;51448;51.660;5.824;2022-07-29T01:11:22;7.45;;;1.60;;
60502;SDS011;51448;51.660;5.824;2022-07-29T01:13:50;4.13;;;1.80;;
60502;SDS011;51448;51.660;5.824;2022-07-29T01:16:30;5.28;;;1.83;;
60502;SDS011;51448;51.660;5.824;2022-07-29T01:19:46;7.40;;;2.13;;
60502;SDS011;51448;51.660;5.824;2022-07-29T01:24:57;6.07;;;2.03;;
60502;SDS011;51448;51.660;5.824;2022-07-29T01:30:31;6.53;;;1.90;;
60502;SDS011;51448;51.660;5.824;2022-07-29T01:33:03;5.22;;;2.17;;
60502;SDS011;51448;51.660;5.824;2022-07-29T01:35:40;9.05;;;2.90;;
60502;SDS011;51448;51.660;5.824;2022-07-29T01:38:11;7.85;;;2.08;;
60502;SDS011;51448;51.660;5.824;2022-07-29T01:40:48;4.63;;;2.13;;
60502;SDS011;51448;51.660;5.824;2022-07-29T01:43:21;8.23;;;2.35;;
60502;SDS011;51448;51.660;5.824;2022-07-29T01:45:59;6.40;;;2.38;;
60502;SDS011;51448;51.660;5.824;2022-07-29T01:48:41;3.75;;;2.15;;
60502;SDS011;51448;51.660;5.824;2022-07-29T01:51:29;6.25;;;2.40;;
60502;SDS011;51448;51.660;5.824;2022-07-29T01:54:07;6.85;;;2.55;;
60502;SDS011;51448;51.660;5.824;2022-07-29T01:56:40;9.25;;;2.55;;
60502;SDS011;51448;51.660;5.824;2022-07-29T01:59:12;5.95;;;2.40;;
60502;SDS011;51448;51.660;5.824;2022-07-29T02:01:39;9.30;;;2.60;;
60502;SDS011;51448;51.660;5.824;2022-07-29T02:04:11;7.43;;;2.80;;
60502;SDS011;51448;51.660;5.824;2022-07-29T02:07:00;4.97;;;2.83;;
60502;SDS011;51448;51.660;5.824;2022-07-29T02:09:32;7.72;;;2.50;;
60502;SDS011;51448;51.660;5.824;2022-07-29T02:12:04;6.88;;;2.92;;
60502;SDS011;51448;51.660;5.824;2022-07-29T02:14:36;7.18;;;2.65;;
60502;SDS011;51448;51.660;5.824;2022-07-29T02:17:09;10.77;;;3.78;;
60502;SDS011;51448;51.660;5.824;2022-07-29T02:19:41;8.20;;;3.63;;
60502;SDS011;51448;51.660;5.824;2022-07-29T02:22:13;9.98;;;4.35;;
60502;SDS011;51448;51.660;5.824;2022-07-29T02:24:43;7.78;;;3.83;;
60502;SDS011;51448;51.660;5.824;2022-07-29T02:27:13;8.20;;;4.30;;
60502;SDS011;51448;51.660;5.824;2022-07-29T02:29:46;9.23;;;3.83;;
60502;SDS011;51448;51.660;5.824;2022-07-29T02:32:17;6.93;;;3.58;;
60502;SDS011;51448;51.660;5.824;2022-07-29T02:34:47;6.55;;;3.63;;
60502;SDS011;51448;51.660;5.824;2022-07-29T02:37:16;7.63;;;3.63;;
60502;SDS011;51448;51.660;5.824;2022-07-29T02:39:48;7.95;;;3.88;;
60502;SDS011;51448;51.660;5.824;2022-07-29T02:42:21;8.48;;;3.70;;
60502;SDS011;51448;51.660;5.824;2022-07-29T02:44:53;8.88;;;3.55;;
60502;SDS011;51448;51.660;5.824;2022-07-29T02:47:23;7.38;;;3.78;;
60502;SDS011;51448;51.660;5.824;2022-07-29T02:52:52;9.15;;;3.55;;
60502;SDS011;51448;51.660;5.824;2022-07-29T02:55:29;5.90;;;3.13;;
60502;SDS011;51448;51.660;5.824;2022-07-29T02:58:27;6.07;;;2.88;;
60502;SDS011;51448;51.660;5.824;2022-07-29T03:01:01;6.68;;;3.00;;
60502;SDS011;51448;51.660;5.824;2022-07-29T03:03:36;6.85;;;3.05;;
60502;SDS011;51448;51.660;5.824;2022-07-29T03:06:05;6.20;;;3.03;;
60502;SDS011;51448;51.660;5.824;2022-07-29T03:09:00;6.93;;;3.42;;
60502;SDS011;51448;51.660;5.824;2022-07-29T03:11:28;6.28;;;3.90;;
60502;SDS011;51448;51.660;5.824;2022-07-29T03:14:17;6.50;;;3.40;;
60502;SDS011;51448;51.660;5.824;2022-07-29T03:16:47;6.10;;;3.37;;
60502;SDS011;51448;51.660;5.824;2022-07-29T03:19:16;6.22;;;2.92;;
60502;SDS011;51448;51.660;5.824;2022-07-29T03:21:46;7.90;;;2.95;;
60502;SDS011;51448;51.660;5.824;2022-07-29T03:24:33;7.70;;;3.67;;
60502;SDS011;51448;51.660;5.824;2022-07-29T03:27:03;9.13;;;3.45;;
60502;SDS011;51448;51.660;5.824;2022-07-29T03:29:32;8.45;;;3.40;;
60502;SDS011;51448;51.660;5.824;2022-07-29T03:32:01;8.20;;;3.60;;
60502;SDS011;51448;51.660;5.824;2022-07-29T03:34:35;8.68;;;3.25;;
60502;SDS011;51448;51.660;5.824;2022-07-29T03:37:05;6.43;;;3.45;;
60502;SDS011;51448;51.660;5.824;2022-07-29T03:39:36;8.07;;;4.40;;
60502;SDS011;51448;51.660;5.824;2022-07-29T03:42:08;9.30;;;3.53;;
60502;SDS011;51448;51.660;5.824;2022-07-29T03:44:45;7.53;;;4.00;;
60502;SDS011;51448;51.660;5.824;2022-07-29T03:47:17;8.50;;;3.80;;
60502;SDS011;51448;51.660;5.824;2022-07-29T03:50:13;7.38;;;3.53;;
60502;SDS011;51448;51.660;5.824;2022-07-29T03:52:43;8.18;;;3.45;;
60502;SDS011;51448;51.660;5.824;2022-07-29T03:55:11;7.38;;;4.00;;
60502;SDS011;51448;51.660;5.824;2022-07-29T03:57:40;6.82;;;3.50;;
60502;SDS011;51448;51.660;5.824;2022-07-29T04:00:09;8.40;;;4.00;;
60502;SDS011;51448;51.660;5.824;2022-07-29T04:02:38;10.18;;;4.15;;
60502;SDS011;51448;51.660;5.824;2022-07-29T04:05:14;12.05;;;4.40;;
60502;SDS011;51448;51.660;5.824;2022-07-29T04:07:43;10.68;;;4.60;;
60502;SDS011;51448;51.660;5.824;2022-07-29T04:12:56;9.57;;;4.70;;
60502;SDS011;51448;51.660;5.824;2022-07-29T04:15:23;8.02;;;4.40;;
60502;SDS011;51448;51.660;5.824;2022-07-29T04:17:51;8.90;;;4.85;;
60502;SDS011;51448;51.660;5.824;2022-07-29T04:20:18;9.35;;;4.70;;
60502;SDS011;51448;51.660;5.824;2022-07-29T04:22:46;9.82;;;4.65;;
60502;SDS011;51448;51.660;5.824;2022-07-29T04:25:13;9.40;;;4.90;;
60502;SDS011;51448;51.660;5.824;2022-07-29T04:27:41;8.38;;;5.22;;
60502;SDS011;51448;51.660;5.824;2022-07-29T04:30:27;9.45;;;5.68;;
60502;SDS011;51448;51.660;5.824;2022-07-29T04:32:56;9.63;;;5.30;;
60502;SDS011;51448;51.660;5.824;2022-07-29T04:35:24;8.10;;;5.47;;
60502;SDS011;51448;51.660;5.824;2022-07-29T04:37:51;7.53;;;5.28;;
60502;SDS011;51448;51.660;5.824;2022-07-29T04:40:19;7.60;;;5.47;;
60502;SDS011;51448;51.660;5.824;2022-07-29T04:42:47;8.07;;;5.03;;
60502;SDS011;51448;51.660;5.824;2022-07-29T04:45:15;8.55;;;6.03;;
60502;SDS011;51448;51.660;5.824;2022-07-29T04:47:48;8.35;;;5.70;;
60502;SDS011;51448;51.660;5.824;2022-07-29T04:50:17;9.63;;;6.22;;
60502;SDS011;51448;51.660;5.824;2022-07-29T04:52:44;11.55;;;6.93;;
60502;SDS011;51448;51.660;5.824;2022-07-29T04:55:12;8.25;;;6.53;;
60502;SDS011;51448;51.660;5.824;2022-07-29T04:57:39;11.63;;;7.10;;
60502;SDS011;51448;51.660;5.824;2022-07-29T05:00:07;8.90;;;6.78;;
60502;SDS011;51448;51.660;5.824;2022-07-29T05:02:36;12.00;;;6.47;;
60502;SDS011;51448;51.660;5.824;2022-07-29T05:05:03;9.15;;;6.63;;
60502;SDS011;51448;51.660;5.824;2022-07-29T05:07:31;9.82;;;6.13;;
60502;SDS011;51448;51.660;5.824;2022-07-29T05:09:59;9.95;;;6.80;;
60502;SDS011;51448;51.660;5.824;2022-07-29T05:12:26;10.85;;;6.60;;
60502;SDS011;51448;51.660;5.824;2022-07-29T05:14:57;8.73;;;6.50;;
60502;SDS011;51448;51.660;5.824;2022-07-29T05:17:24;11.68;;;6.53;;
60502;SDS011;51448;51.660;5.824;2022-07-29T05:19:54;10.82;;;6.68;;
60502;SDS011;51448;51.660;5.824;2022-07-29T05:22:24;11.20;;;6.13;;
60502;SDS011;51448;51.660;5.824;2022-07-29T05:24:51;10.05;;;6.28;;
60502;SDS011;51448;51.660;5.824;2022-07-29T05:27:19;9.63;;;6.65;;
60502;SDS011;51448;51.660;5.824;2022-07-29T05:29:46;9.90;;;6.00;;
60502;SDS011;51448;51.660;5.824;2022-07-29T05:32:14;12.20;;;6.22;;
60502;SDS011;51448;51.660;5.824;2022-07-29T05:34:42;11.20;;;6.20;;
60502;SDS011;51448;51.660;5.824;2022-07-29T05:37:18;9.48;;;6.30;;
60502;SDS011;51448;51.660;5.824;2022-07-29T05:39:46;9.70;;;6.20;;
60502;SDS011;51448;51.660;5.824;2022-07-29T05:42:23;7.68;;;5.40;;
60502;SDS011;51448;51.660;5.824;2022-07-29T05:44:52;9.13;;;5.95;;
60502;SDS011;51448;51.660;5.824;2022-07-29T05:47:20;8.27;;;5.65;;
60502;SDS011;51448;51.660;5.824;2022-07-29T05:49:49;8.77;;;5.63;;
60502;SDS011;51448;51.660;5.824;2022-07-29T05:52:17;7.68;;;5.55;;
60502;SDS011;51448;51.660;5.824;2022-07-29T05:54:45;8.43;;;5.55;;
60502;SDS011;51448;51.660;5.824;2022-07-29T05:57:16;9.30;;;6.18;;
60502;SDS011;51448;51.660;5.824;2022-07-29T05:59:45;10.07;;;5.15;;
60502;SDS011;51448;51.660;5.824;2022-07-29T06:02:13;11.40;;;6.32;;
60502;SDS011;51448;51.660;5.824;2022-07-29T06:04:41;8.30;;;5.40;;
60502;SDS011;51448;51.660;5.824;2022-07-29T06:07:09;9.45;;;5.88;;
60502;SDS011;51448;51.660;5.824;2022-07-29T06:09:38;9.23;;;6.38;;
60502;SDS011;51448;51.660;5.824;2022-07-29T06:12:05;9.40;;;6.07;;
60502;SDS011;51448;51.660;5.824;2022-07-29T06:14:33;11.30;;;6.03;;
60502;SDS011;51448;51.660;5.824;2022-07-29T06:17:02;10.27;;;6.30;;
60502;SDS011;51448;51.660;5.824;2022-07-29T06:19:29;10.27;;;6.55;;
60502;SDS011;51448;51.660;5.824;2022-07-29T06:22:03;10.63;;;5.97;;
60502;SDS011;51448;51.660;5.824;2022-07-29T06:24:31;10.43;;;5.95;;
60502;SDS011;51448;51.660;5.824;2022-07-29T06:26:59;8.23;;;5.80;;
60502;SDS011;51448;51.660;5.824;2022-07-29T06:29:26;9.98;;;5.85;;
60502;SDS011;51448;51.660;5.824;2022-07-29T06:31:54;11.43;;;6.30;;
60502;SDS011;51448;51.660;5.824;2022-07-29T06:34:22;10.00;;;5.95;;
60502;SDS011;51448;51.660;5.824;2022-07-29T06:36:50;8.52;;;5.97;;
60502;SDS011;51448;51.660;5.824;2022-07-29T06:39:20;10.73;;;5.88;;
60502;SDS011;51448;51.660;5.824;2022-07-29T06:41:48;8.27;;;5.57;;
60502;SDS011;51448;51.660;5.824;2022-07-29T06:44:17;8.75;;;5.55;;
60502;SDS011;51448;51.660;5.824;2022-07-29T06:46:48;8.93;;;5.60;;
60502;SDS011;51448;51.660;5.824;2022-07-29T06:55:48;11.18;;;4.80;;
60502;SDS011;51448;51.660;5.824;2022-07-29T06:58:16;6.65;;;4.97;;
60502;SDS011;51448;51.660;5.824;2022-07-29T07:00:54;7.78;;;5.35;;
60502;SDS011;51448;51.660;5.824;2022-07-29T07:03:23;10.02;;;5.90;;
60502;SDS011;51448;51.660;5.824;2022-07-29T07:05:52;9.07;;;6.10;;
60502;SDS011;51448;51.660;5.824;2022-07-29T07:08:21;8.38;;;5.50;;
60502;SDS011;51448;51.660;5.824;2022-07-29T07:10:51;8.25;;;5.80;;
60502;SDS011;51448;51.660;5.824;2022-07-29T07:13:19;10.40;;;5.60;;
60502;SDS011;51448;51.660;5.824;2022-07-29T07:15:47;10.05;;;6.30;;
60502;SDS011;51448;51.660;5.824;2022-07-29T07:18:15;9.80;;;6.35;;
60502;SDS011;51448;51.660;5.824;2022-07-29T07:20:43;9.55;;;6.13;;
60502;SDS011;51448;51.660;5.824;2022-07-29T07:23:12;9.55;;;6.25;;
60502;SDS011;51448;51.660;5.824;2022-07-29T07:25:39;10.57;;;6.00;;
60502;SDS011;51448;51.660;5.824;2022-07-29T07:28:07;10.57;;;6.20;;
60502;SDS011;51448;51.660;5.824;2022-07-29T07:30:35;8.18;;;5.80;;
60502;SDS011;51448;51.660;5.824;2022-07-29T07:33:02;8.15;;;5.90;;
60502;SDS011;51448;51.660;5.824;2022-07-29T07:35:30;10.95;;;6.03;;
60502;SDS011;51448;51.660;5.824;2022-07-29T07:37:58;9.50;;;5.60;;
60502;SDS011;51448;51.660;5.824;2022-07-29T07:40:25;10.18;;;5.70;;
60502;SDS011;51448;51.660;5.824;2022-07-29T07:42:53;8.85;;;5.63;;
60502;SDS011;51448;51.660;5.824;2022-07-29T07:45:21;9.27;;;5.50;;
60502;SDS011;51448;51.660;5.824;2022-07-29T07:47:48;8.30;;;5.45;;
60502;SDS011;51448;51.660;5.824;2022-07-29T07:50:16;8.43;;;5.03;;
60502;SDS011;51448;51.660;5.824;2022-07-29T07:52:48;10.43;;;5.32;;
60502;SDS011;51448;51.660;5.824;2022-07-29T07:55:25;12.73;;;6.25;;
60502;SDS011;51448;51.660;5.824;2022-07-29T07:57:54;7.55;;;5.32;;
60502;SDS011;51448;51.660;5.824;2022-07-29T08:00:22;8.60;;;5.07;;
60502;SDS011;51448;51.660;5.824;2022-07-29T08:02:50;7.70;;;4.95;;
60502;SDS011;51448;51.660;5.824;2022-07-29T08:05:17;8.40;;;4.90;;
60502;SDS011;51448;51.660;5.824;2022-07-29T08:07:46;9.85;;;5.18;;
60502;SDS011;51448;51.660;5.824;2022-07-29T08:10:14;10.57;;;5.43;;
60502;SDS011;51448;51.660;5.824;2022-07-29T08:13:03;9.68;;;4.57;;
60502;SDS011;51448;51.660;5.824;2022-07-29T08:15:33;11.07;;;5.00;;
60502;SDS011;51448;51.660;5.824;2022-07-29T08:18:01;7.60;;;4.60;;
60502;SDS011;51448;51.660;5.824;2022-07-29T08:20:35;8.38;;;4.90;;
60502;SDS011;51448;51.660;5.824;2022-07-29T08:23:07;5.93;;;4.22;;
60502;SDS011;51448;51.660;5.824;2022-07-29T08:25:36;12.02;;;4.95;;
60502;SDS011;51448;51.660;5.824;2022-07-29T08:28:06;10.40;;;4.87;;
60502;SDS011;51448;51.660;5.824;2022-07-29T08:30:34;7.07;;;4.47;;
60502;SDS011;51448;51.660;5.824;2022-07-29T08:33:02;7.82;;;5.55;;
60502;SDS011;51448;51.660;5.824;2022-07-29T08:35:30;10.18;;;4.95;;
60502;SDS011;51448;51.660;5.824;2022-07-29T08:38:02;8.73;;;5.30;;
60502;SDS011;51448;51.660;5.824;2022-07-29T08:40:30;8.68;;;4.97;;
60502;SDS011;51448;51.660;5.824;2022-07-29T08:43:03;10.80;;;5.20;;
60502;SDS011;51448;51.660;5.824;2022-07-29T08:45:56;8.30;;;4.53;;
60502;SDS011;51448;51.660;5.824;2022-07-29T08:48:23;7.85;;;4.25;;
60502;SDS011;51448;51.660;5.824;2022-07-29T08:50:55;7.63;;;4.03;;
60502;SDS011;51448;51.660;5.824;2022-07-29T08:53:25;9.73;;;4.38;;
60502;SDS011;51448;51.660;5.824;2022-07-29T08:55:55;9.40;;;4.97;;
60502;SDS011;51448;51.660;5.824;2022-07-29T08:58:24;6.00;;;4.07;;
60502;SDS011;51448;51.660;5.824;2022-07-29T09:00:55;9.15;;;4.40;;
60502;SDS011;51448;51.660;5.824;2022-07-29T09:03:24;6.97;;;4.35;;
60502;SDS011;51448;51.660;5.824;2022-07-29T09:06:01;8.57;;;4.50;;
60502;SDS011;51448;51.660;5.824;2022-07-29T09:08:31;6.85;;;4.22;;
60502;SDS011;51448;51.660;5.824;2022-07-29T09:11:02;9.23;;;4.43;;
60502;SDS011;51448;51.660;5.824;2022-07-29T09:13:31;10.05;;;4.20;;
60502;SDS011;51448;51.660;5.824;2022-07-29T09:15:59;10.48;;;4.65;;
60502;SDS011;51448;51.660;5.824;2022-07-29T09:21:11;9.38;;;4.57;;
60502;SDS011;51448;51.660;5.824;2022-07-29T09:24:00;10.68;;;4.28;;
60502;SDS011;51448;51.660;5.824;2022-07-29T09:29:00;11.95;;;5.25;;
60502;SDS011;51448;51.660;5.824;2022-07-29T09:31:38;9.50;;;5.10;;
60502;SDS011;51448;51.660;5.824;2022-07-29T09:34:09;8.60;;;4.65;;
60502;SDS011;51448;51.660;5.824;2022-07-29T09:36:45;8.38;;;4.47;;
60502;SDS011;51448;51.660;5.824;2022-07-29T09:39:15;8.02;;;4.80;;
60502;SDS011;51448;51.660;5.824;2022-07-29T09:41:57;9.13;;;4.45;;
60502;SDS011;51448;51.660;5.824;2022-07-29T09:44:45;7.47;;;4.43;;
60502;SDS011;51448;51.660;5.824;2022-07-29T09:47:17;8.00;;;4.65;;
60502;SDS011;51448;51.660;5.824;2022-07-29T09:49:55;8.40;;;4.70;;
60502;SDS011;51448;51.660;5.824;2022-07-29T09:56:02;7.13;;;4.25;;
60502;SDS011;51448;51.660;5.824;2022-07-29T09:58:59;7.53;;;3.83;;
60502;SDS011;51448;51.660;5.824;2022-07-29T10:01:53;7.82;;;4.10;;
60502;SDS011;51448;51.660;5.824;2022-07-29T10:04:42;8.15;;;3.67;;
60502;SDS011;51448;51.660;5.824;2022-07-29T10:07:10;7.78;;;3.63;;
60502;SDS011;51448;51.660;5.824;2022-07-29T10:09:39;7.35;;;4.05;;
60502;SDS011;51448;51.660;5.824;2022-07-29T10:12:20;10.48;;;4.15;;
60502;SDS011;51448;51.660;5.824;2022-07-29T10:14:48;7.55;;;4.20;;
60502;SDS011;51448;51.660;5.824;2022-07-29T10:17:17;6.63;;;3.55;;
60502;SDS011;51448;51.660;5.824;2022-07-29T10:19:46;6.10;;;4.22;;
60502;SDS011;51448;51.660;5.824;2022-07-29T10:22:15;7.43;;;4.60;;
60502;SDS011;51448;51.660;5.824;2022-07-29T10:25:03;8.32;;;3.90;;
60502;SDS011;51448;51.660;5.824;2022-07-29T10:27:31;9.48;;;4.20;;
60502;SDS011;51448;51.660;5.824;2022-07-29T10:30:02;8.70;;;4.32;;
60502;SDS011;51448;51.660;5.824;2022-07-29T10:32:35;5.75;;;3.22;;
60502;SDS011;51448;51.660;5.824;2022-07-29T10:38:19;7.63;;;4.10;;
60502;SDS011;51448;51.660;5.824;2022-07-29T10:41:25;6.97;;;4.05;;
60502;SDS011;51448;51.660;5.824;2022-07-29T10:44:19;9.68;;;3.55;;
60502;SDS011;51448;51.660;5.824;2022-07-29T10:46:51;8.95;;;3.92;;
60502;SDS011;51448;51.660;5.824;2022-07-29T10:49:21;8.98;;;3.47;;
60502;SDS011;51448;51.660;5.824;2022-07-29T10:52:06;6.88;;;3.00;;
60502;SDS011;51448;51.660;5.824;2022-07-29T11:00:28;6.75;;;3.20;;
60502;SDS011;51448;51.660;5.824;2022-07-29T11:02:58;6.45;;;3.00;;
60502;SDS011;51448;51.660;5.824;2022-07-29T11:05:40;9.10;;;3.40;;
60502;SDS011;51448;51.660;5.824;2022-07-29T11:08:26;7.82;;;3.80;;
60502;SDS011;51448;51.660;5.824;2022-07-29T11:13:51;7.57;;;3.65;;
60502;SDS011;51448;51.660;5.824;2022-07-29T11:16:23;12.00;;;4.13;;
60502;SDS011;51448;51.660;5.824;2022-07-29T11:21:40;7.63;;;3.25;;
60502;SDS011;51448;51.660;5.824;2022-07-29T11:24:22;7.40;;;3.75;;
60502;SDS011;51448;51.660;5.824;2022-07-29T11:27:08;6.85;;;3.15;;
60502;SDS011;51448;51.660;5.824;2022-07-29T11:29:48;9.68;;;3.78;;
60502;SDS011;51448;51.660;5.824;2022-07-29T11:32:20;6.43;;;3.30;;
60502;SDS011;51448;51.660;5.824;2022-07-29T11:37:46;6.53;;;3.50;;
60502;SDS011;51448;51.660;5.824;2022-07-29T11:40:34;8.68;;;3.03;;
60502;SDS011;51448;51.660;5.824;2022-07-29T11:43:03;8.15;;;2.97;;
60502;SDS011;51448;51.660;5.824;2022-07-29T11:45:45;8.02;;;3.60;;
60502;SDS011;51448;51.660;5.824;2022-07-29T11:48:17;6.78;;;3.03;;
60502;SDS011;51448;51.660;5.824;2022-07-29T11:50:57;5.88;;;3.25;;
60502;SDS011;51448;51.660;5.824;2022-07-29T11:53:26;9.40;;;3.35;;
60502;SDS011;51448;51.660;5.824;2022-07-29T11:55:59;7.43;;;3.20;;
60502;SDS011;51448;51.660;5.824;2022-07-29T11:58:29;7.80;;;3.20;;
60502;SDS011;51448;51.660;5.824;2022-07-29T12:00:58;7.95;;;2.67;;
60502;SDS011;51448;51.660;5.824;2022-07-29T12:03:31;6.00;;;2.70;;
60502;SDS011;51448;51.660;5.824;2022-07-29T12:06:10;8.13;;;2.72;;
60502;SDS011;51448;51.660;5.824;2022-07-29T12:08:41;6.85;;;2.42;;
60502;SDS011;51448;51.660;5.824;2022-07-29T12:11:17;6.43;;;2.55;;
60502;SDS011;51448;51.660;5.824;2022-07-29T12:13:49;6.68;;;3.30;;
60502;SDS011;51448;51.660;5.824;2022-07-29T12:16:19;6.93;;;2.50;;
60502;SDS011;51448;51.660;5.824;2022-07-29T12:18:56;8.15;;;2.90;;
60502;SDS011;51448;51.660;5.824;2022-07-29T12:21:27;5.93;;;3.47;;
60502;SDS011;51448;51.660;5.824;2022-07-29T12:23:55;7.47;;;2.90;;
60502;SDS011;51448;51.660;5.824;2022-07-29T12:26:34;6.88;;;3.10;;
60502;SDS011;51448;51.660;5.824;2022-07-29T12:29:03;9.18;;;2.70;;
60502;SDS011;51448;51.660;5.824;2022-07-29T12:31:37;6.68;;;2.90;;
60502;SDS011;51448;51.660;5.824;2022-07-29T12:34:12;9.07;;;2.78;;
60502;SDS011;51448;51.660;5.824;2022-07-29T12:36:43;6.65;;;3.35;;
60502;SDS011;51448;51.660;5.824;2022-07-29T12:39:11;6.18;;;2.85;;
60502;SDS011;51448;51.660;5.824;2022-07-29T12:41:39;6.68;;;3.45;;
60502;SDS011;51448;51.660;5.824;2022-07-29T12:44:07;7.70;;;3.28;;
60502;SDS011;51448;51.660;5.824;2022-07-29T12:46:35;6.15;;;3.00;;
60502;SDS011;51448;51.660;5.824;2022-07-29T12:49:03;5.63;;;3.17;;
60502;SDS011;51448;51.660;5.824;2022-07-29T12:51:32;7.18;;;3.25;;
60502;SDS011;51448;51.660;5.824;2022-07-29T12:54:05;6.68;;;3.28;;
60502;SDS011;51448;51.660;5.824;2022-07-29T12:56:38;7.07;;;2.80;;
60502;SDS011;51448;51.660;5.824;2022-07-29T12:59:15;4.85;;;2.10;;
60502;SDS011;51448;51.660;5.824;2022-07-29T13:01:49;8.32;;;3.45;;
60502;SDS011;51448;51.660;5.824;2022-07-29T13:04:29;6.50;;;3.00;;
60502;SDS011;51448;51.660;5.824;2022-07-29T13:07:02;6.55;;;3.20;;
60502;SDS011;51448;51.660;5.824;2022-07-29T13:09:38;7.00;;;2.83;;
60502;SDS011;51448;51.660;5.824;2022-07-29T13:12:09;5.63;;;2.10;;
60502;SDS011;51448;51.660;5.824;2022-07-29T13:14:42;7.22;;;2.63;;
60502;SDS011;51448;51.660;5.824;2022-07-29T13:17:18;7.97;;;3.00;;
60502;SDS011;51448;51.660;5.824;2022-07-29T13:20:05;7.32;;;1.98;;
60502;SDS011;51448;51.660;5.824;2022-07-29T13:22:40;4.72;;;1.70;;
60502;SDS011;51448;51.660;5.824;2022-07-29T13:25:09;6.80;;;2.33;;
60502;SDS011;51448;51.660;5.824;2022-07-29T13:27:37;3.92;;;1.85;;
60502;SDS011;51448;51.660;5.824;2022-07-29T13:30:07;7.00;;;2.35;;
60502;SDS011;51448;51.660;5.824;2022-07-29T13:32:36;7.82;;;2.38;;
60502;SDS011;51448;51.660;5.824;2022-07-29T13:35:05;8.32;;;2.45;;
60502;SDS011;51448;51.660;5.824;2022-07-29T13:37:35;5.28;;;2.30;;
60502;SDS011;51448;51.660;5.824;2022-07-29T13:40:06;6.83;;;2.20;;
60502;SDS011;51448;51.660;5.824;2022-07-29T13:42:37;5.40;;;2.22;;
60502;SDS011;51448;51.660;5.824;2022-07-29T13:45:08;5.57;;;2.03;;
60502;SDS011;51448;51.660;5.824;2022-07-29T13:47:37;5.90;;;2.40;;
60502;SDS011;51448;51.660;5.824;2022-07-29T13:50:06;6.28;;;2.25;;
60502;SDS011;51448;51.660;5.824;2022-07-29T13:52:36;5.28;;;2.22;;
60502;SDS011;51448;51.660;5.824;2022-07-29T13:55:05;5.20;;;2.05;;
60502;SDS011;51448;51.660;5.824;2022-07-29T13:57:33;3.83;;;1.83;;
60502;SDS011;51448;51.660;5.824;2022-07-29T14:00:01;6.72;;;2.38;;
60502;SDS011;51448;51.660;5.824;2022-07-29T14:02:34;5.35;;;2.38;;
60502;SDS011;51448;51.660;5.824;2022-07-29T14:05:01;5.00;;;1.73;;
60502;SDS011;51448;51.660;5.824;2022-07-29T14:07:34;6.97;;;2.10;;
60502;SDS011;51448;51.660;5.824;2022-07-29T14:10:02;4.78;;;2.05;;
60502;SDS011;51448;51.660;5.824;2022-07-29T14:12:32;5.45;;;1.85;;
60502;SDS011;51448;51.660;5.824;2022-07-29T14:15:00;6.00;;;1.98;;
60502;SDS011;51448;51.660;5.824;2022-07-29T14:17:27;4.50;;;1.65;;
60502;SDS011;51448;51.660;5.824;2022-07-29T14:19:55;5.50;;;2.00;;
60502;SDS011;51448;51.660;5.824;2022-07-29T14:22:23;4.63;;;1.95;;
60502;SDS011;51448;51.660;5.824;2022-07-29T14:24:53;6.40;;;2.13;;
60502;SDS011;51448;51.660;5.824;2022-07-29T14:27:21;4.43;;;2.15;;
60502;SDS011;51448;51.660;5.824;2022-07-29T14:30:05;5.70;;;1.88;;
60502;SDS011;51448;51.660;5.824;2022-07-29T14:32:33;4.80;;;2.00;;
60502;SDS011;51448;51.660;5.824;2022-07-29T14:35:02;4.55;;;2.13;;
60502;SDS011;51448;51.660;5.824;2022-07-29T14:37:30;5.22;;;1.83;;
60502;SDS011;51448;51.660;5.824;2022-07-29T14:40:07;5.88;;;2.45;;
60502;SDS011;51448;51.660;5.824;2022-07-29T14:42:36;5.90;;;2.65;;
60502;SDS011;51448;51.660;5.824;2022-07-29T14:45:05;7.28;;;2.55;;
60502;SDS011;51448;51.660;5.824;2022-07-29T14:47:35;9.80;;;2.17;;
60502;SDS011;51448;51.660;5.824;2022-07-29T14:50:05;4.75;;;1.90;;
60502;SDS011;51448;51.660;5.824;2022-07-29T14:52:34;5.20;;;1.90;;
60502;SDS011;51448;51.660;5.824;2022-07-29T14:55:02;4.93;;;1.80;;
60502;SDS011;51448;51.660;5.824;2022-07-29T14:57:42;5.15;;;1.90;;
60502;SDS011;51448;51.660;5.824;2022-07-29T15:00:10;7.93;;;2.33;;
60502;SDS011;51448;51.660;5.824;2022-07-29T15:02:38;5.55;;;1.60;;
60502;SDS011;51448;51.660;5.824;2022-07-29T15:05:26;5.50;;;2.00;;
60502;SDS011;51448;51.660;5.824;2022-07-29T15:07:54;5.88;;;2.13;;
60502;SDS011;51448;51.660;5.824;2022-07-29T15:10:22;4.57;;;1.85;;
60502;SDS011;51448;51.660;5.824;2022-07-29T15:12:50;5.32;;;1.95;;
60502;SDS011;51448;51.660;5.824;2022-07-29T15:15:18;4.88;;;1.70;;
60502;SDS011;51448;51.660;5.824;2022-07-29T15:17:46;7.85;;;2.03;;
60502;SDS011;51448;51.660;5.824;2022-07-29T15:20:14;6.80;;;2.08;;
60502;SDS011;51448;51.660;5.824;2022-07-29T15:22:43;5.28;;;2.03;;
60502;SDS011;51448;51.660;5.824;2022-07-29T15:25:11;7.25;;;1.73;;
60502;SDS011;51448;51.660;5.824;2022-07-29T15:27:39;7.60;;;2.10;;
60502;SDS011;51448;51.660;5.824;2022-07-29T15:30:16;6.18;;;1.98;;
60502;SDS011;51448;51.660;5.824;2022-07-29T15:33:01;5.22;;;1.90;;
60502;SDS011;51448;51.660;5.824;2022-07-29T15:35:30;8.45;;;2.10;;
60502;SDS011;51448;51.660;5.824;2022-07-29T15:37:57;6.00;;;1.70;;
60502;SDS011;51448;51.660;5.824;2022-07-29T15:40:25;5.60;;;1.80;;
60502;SDS011;51448;51.660;5.824;2022-07-29T15:42:53;7.78;;;2.20;;
60502;SDS011;51448;51.660;5.824;2022-07-29T15:45:21;6.00;;;2.25;;
60502;SDS011;51448;51.660;5.824;2022-07-29T15:47:48;6.63;;;2.40;;
60502;SDS011;51448;51.660;5.824;2022-07-29T15:50:16;6.70;;;2.45;;
60502;SDS011;51448;51.660;5.824;2022-07-29T15:52:44;4.43;;;2.22;;
60502;SDS011;51448;51.660;5.824;2022-07-29T15:55:12;6.90;;;2.10;;
60502;SDS011;51448;51.660;5.824;2022-07-29T15:57:41;5.22;;;2.03;;